sensor_id;sensor_type;location;lat;lon;timestamp;pressure;altitude;pressure_sealevel;temperature;humidity
39267;BME280;24967;51.154;13.812;2023-04-06T13:25:35;99830.44;;;11.44;35.91
39267;BME280;24967;51.154;13.812;2023-04-06T13:28:01;99828.28;;;12.11;35.03
39267;BME280;24967;51.154;13.812;2023-04-06T13:30:28;99824.88;;;12.71;33.73
39267;BME280;24967;51.154;13.812;2023-04-06T13:32:55;99824.09;;;13.04;35.98
39267;BME280;24967;51.154;13.812;2023-04-06T13:35:21;99815.91;;;13.40;34.43
39267;BME280;24967;51.154;13.812;2023-04-06T13:40:15;99806.00;;;13.83;33.42
39267;BME280;24967;51.154;13.812;2023-04-06T13:42:43;99806.84;;;14.00;33.36
39267;BME280;24967;51.154;13.812;2023-04-06T13:45:11;99810.03;;;13.95;30.57
39267;BME280;24967;51.154;13.812;2023-04-06T13:47:37;99806.19;;;14.14;32.19
39267;BME280;24967;51.154;13.812;2023-04-06T13:50:05;99802.97;;;13.78;31.56
39267;BME280;24967;51.154;13.812;2023-04-06T13:52:32;99808.84;;;13.82;30.80
39267;BME280;24967;51.154;13.812;2023-04-06T13:55:01;99805.34;;;13.97;31.00
39267;BME280;24967;51.154;13.812;2023-04-06T13:57:28;99796.16;;;14.00;33.92
39267;BME280;24967;51.154;13.812;2023-04-06T13:59:56;99800.84;;;14.23;32.81
39267;BME280;24967;51.154;13.812;2023-04-06T14:02:23;99799.63;;;14.74;32.73
39267;BME280;24967;51.154;13.812;2023-04-06T14:04:52;99792.97;;;14.21;30.77
39267;BME280;24967;51.154;13.812;2023-04-06T14:07:20;99789.63;;;14.19;32.11
39267;BME280;24967;51.154;13.812;2023-04-06T14:09:48;99790.63;;;14.10;32.20
39267;BME280;24967;51.154;13.812;2023-04-06T14:12:18;99796.16;;;14.25;32.42
39267;BME280;24967;51.154;13.812;2023-04-06T14:14:47;99793.81;;;13.89;30.93
39267;BME280;24967;51.154;13.812;2023-04-06T14:17:15;99793.09;;;13.70;30.64
39267;BME280;24967;51.154;13.812;2023-04-06T14:19:44;99798.66;;;13.85;31.44
39267;BME280;24967;51.154;13.812;2023-04-06T14:22:14;99793.53;;;13.33;32.15
39267;BME280;24967;51.154;13.812;2023-04-06T14:24:47;99795.00;;;13.27;31.73
39267;BME280;24967;51.154;13.812;2023-04-06T14:27:13;99795.72;;;13.38;32.74
39267;BME280;24967;51.154;13.812;2023-04-06T14:29:48;99796.38;;;13.32;31.62
39267;BME280;24967;51.154;13.812;2023-04-06T14:32:17;99790.59;;;13.52;32.90
39267;BME280;24967;51.154;13.812;2023-04-06T14:34:44;99795.91;;;13.44;31.74
39267;BME280;24967;51.154;13.812;2023-04-06T14:37:11;99797.75;;;13.52;31.18
39267;BME280;24967;51.154;13.812;2023-04-06T14:42:12;99793.97;;;13.20;32.68
39267;BME280;24967;51.154;13.812;2023-04-06T14:44:39;99790.25;;;13.47;32.34
39267;BME280;24967;51.154;13.812;2023-04-06T14:47:08;99789.84;;;13.34;32.12
39267;BME280;24967;51.154;13.812;2023-04-06T14:49:36;99786.41;;;13.16;31.49
39267;BME280;24967;51.154;13.812;2023-04-06T14:52:03;99783.34;;;13.37;31.46
39267;BME280;24967;51.154;13.812;2023-04-06T14:54:29;99783.94;;;13.14;31.99
39267;BME280;24967;51.154;13.812;2023-04-06T14:56:56;99785.53;;;13.33;30.95
39267;BME280;24967;51.154;13.812;2023-04-06T14:59:22;99785.78;;;13.22;32.37
39267;BME280;24967;51.154;13.812;2023-04-06T15:01:49;99781.22;;;13.48;32.90
39267;BME280;24967;51.154;13.812;2023-04-06T15:04:16;99779.25;;;13.67;32.84
39267;BME280;24967;51.154;13.812;2023-04-06T15:06:44;99779.22;;;13.50;32.61
39267;BME280;24967;51.154;13.812;2023-04-06T15:09:10;99772.75;;;13.19;31.02
39267;BME280;24967;51.154;13.812;2023-04-06T15:11:37;99774.88;;;13.07;30.57
39267;BME280;24967;51.154;13.812;2023-04-06T15:14:05;99780.25;;;13.15;31.25
39267;BME280;24967;51.154;13.812;2023-04-06T15:16:31;99780.34;;;13.32;31.59
39267;BME280;24967;51.154;13.812;2023-04-06T15:18:58;99774.81;;;13.25;32.24
39267;BME280;24967;51.154;13.812;2023-04-06T15:21:24;99774.84;;;13.33;30.97
39267;BME280;24967;51.154;13.812;2023-04-06T15:23:53;99768.53;;;13.50;31.74
39267;BME280;24967;51.154;13.812;2023-04-06T15:26:20;99771.25;;;13.75;31.51
39267;BME280;24967;51.154;13.812;2023-04-06T15:28:47;99760.03;;;13.47;30.79
39267;BME280;24967;51.154;13.812;2023-04-06T15:31:14;99771.03;;;13.44;31.75
39267;BME280;24967;51.154;13.812;2023-04-06T15:33:41;99770.72;;;13.47;31.51
39267;BME280;24967;51.154;13.812;2023-04-06T15:36:22;99763.91;;;13.85;31.73
39267;BME280;24967;51.154;13.812;2023-04-06T15:38:52;99762.88;;;13.54;29.88
39267;BME280;24967;51.154;13.812;2023-04-06T15:41:19;99768.22;;;13.54;30.47
39267;BME280;24967;51.154;13.812;2023-04-06T15:43:48;99755.88;;;13.61;31.51
39267;BME280;24967;51.154;13.812;2023-04-06T15:46:15;99758.72;;;13.59;31.59
39267;BME280;24967;51.154;13.812;2023-04-06T15:48:42;99757.53;;;13.54;31.77
39267;BME280;24967;51.154;13.812;2023-04-06T15:51:08;99759.06;;;13.22;31.01
39267;BME280;24967;51.154;13.812;2023-04-06T15:53:35;99764.53;;;13.46;32.05
39267;BME280;24967;51.154;13.812;2023-04-06T15:56:05;99763.72;;;13.70;31.94
39267;BME280;24967;51.154;13.812;2023-04-06T15:58:33;99765.25;;;13.81;32.09
39267;BME280;24967;51.154;13.812;2023-04-06T16:00:59;99762.59;;;13.89;31.95
39267;BME280;24967;51.154;13.812;2023-04-06T16:03:26;99755.03;;;13.77;31.45
39267;BME280;24967;51.154;13.812;2023-04-06T16:05:53;99765.22;;;13.57;31.45
39267;BME280;24967;51.154;13.812;2023-04-06T16:08:20;99759.16;;;13.30;31.73
39267;BME280;24967;51.154;13.812;2023-04-06T16:10:46;99770.06;;;13.19;32.79
39267;BME280;24967;51.154;13.812;2023-04-06T16:13:15;99764.97;;;12.91;32.36
39267;BME280;24967;51.154;13.812;2023-04-06T16:15:41;99778.75;;;12.78;32.98
39267;BME280;24967;51.154;13.812;2023-04-06T16:18:08;99769.41;;;12.74;33.12
39267;BME280;24967;51.154;13.812;2023-04-06T16:20:35;99768.09;;;12.78;33.80
39267;BME280;24967;51.154;13.812;2023-04-06T16:23:02;99774.50;;;12.59;32.73
39267;BME280;24967;51.154;13.812;2023-04-06T16:25:28;99764.88;;;12.41;33.42
39267;BME280;24967;51.154;13.812;2023-04-06T16:27:55;99763.50;;;12.36;33.82
39267;BME280;24967;51.154;13.812;2023-04-06T16:30:22;99762.69;;;12.36;33.88
39267;BME280;24967;51.154;13.812;2023-04-06T16:32:50;99766.34;;;12.35;33.48
39267;BME280;24967;51.154;13.812;2023-04-06T16:35:17;99762.16;;;12.32;34.15
39267;BME280;24967;51.154;13.812;2023-04-06T16:37:44;99761.94;;;12.26;34.36
39267;BME280;24967;51.154;13.812;2023-04-06T16:40:11;99761.56;;;12.21;33.66
39267;BME280;24967;51.154;13.812;2023-04-06T16:42:39;99769.03;;;12.17;34.22
39267;BME280;24967;51.154;13.812;2023-04-06T16:45:12;99760.88;;;12.19;34.73
39267;BME280;24967;51.154;13.812;2023-04-06T16:47:40;99759.75;;;12.21;33.99
39267;BME280;24967;51.154;13.812;2023-04-06T16:50:08;99771.63;;;12.09;34.92
39267;BME280;24967;51.154;13.812;2023-04-06T16:52:35;99768.16;;;12.08;34.50
39267;BME280;24967;51.154;13.812;2023-04-06T16:55:01;99756.06;;;11.96;34.71
39267;BME280;24967;51.154;13.812;2023-04-06T16:57:28;99763.25;;;12.04;35.39
39267;BME280;24967;51.154;13.812;2023-04-06T16:59:55;99765.56;;;11.99;35.25
39267;BME280;24967;51.154;13.812;2023-04-06T17:02:21;99765.28;;;12.02;36.13
39267;BME280;24967;51.154;13.812;2023-04-06T17:04:49;99761.59;;;12.03;36.10
39267;BME280;24967;51.154;13.812;2023-04-06T17:07:16;99761.91;;;12.00;36.13
39267;BME280;24967;51.154;13.812;2023-04-06T17:09:46;99762.00;;;11.90;35.77
39267;BME280;24967;51.154;13.812;2023-04-06T17:12:13;99767.22;;;11.82;35.89
39267;BME280;24967;51.154;13.812;2023-04-06T17:14:39;99755.44;;;11.66;35.93
39267;BME280;24967;51.154;13.812;2023-04-06T17:17:06;99763.81;;;11.72;36.21
39267;BME280;24967;51.154;13.812;2023-04-06T17:19:32;99760.06;;;11.64;36.49
39267;BME280;24967;51.154;13.812;2023-04-06T17:22:00;99766.00;;;11.58;36.34
39267;BME280;24967;51.154;13.812;2023-04-06T17:24:27;99765.63;;;11.53;36.48
39267;BME280;24967;51.154;13.812;2023-04-06T17:26:53;99765.84;;;11.42;36.63
39267;BME280;24967;51.154;13.812;2023-04-06T17:29:20;99766.03;;;11.31;36.59
39267;BME280;24967;51.154;13.812;2023-04-06T17:31:47;99760.91;;;11.19;36.94
39267;BME280;24967;51.154;13.812;2023-04-06T17:34:13;99758.09;;;11.03;36.82
39267;BME280;24967;51.154;13.812;2023-04-06T17:36:53;99763.75;;;10.90;37.10
39267;BME280;24967;51.154;13.812;2023-04-06T17:39:23;99776.50;;;10.87;37.21
39267;BME280;24967;51.154;13.812;2023-04-06T17:41:49;99775.09;;;10.83;37.44
39267;BME280;24967;51.154;13.812;2023-04-06T17:46:51;99777.56;;;10.66;37.90
39267;BME280;24967;51.154;13.812;2023-04-06T17:49:17;99771.44;;;10.56;38.02
39267;BME280;24967;51.154;13.812;2023-04-06T17:51:44;99776.19;;;10.52;38.24
39267;BME280;24967;51.154;13.812;2023-04-06T17:54:11;99777.91;;;10.44;38.65
39267;BME280;24967;51.154;13.812;2023-04-06T17:56:39;99787.44;;;10.37;38.85
39267;BME280;24967;51.154;13.812;2023-04-06T17:59:06;99784.22;;;10.23;39.55
39267;BME280;24967;51.154;13.812;2023-04-06T18:01:35;99788.72;;;10.03;39.98
39267;BME280;24967;51.154;13.812;2023-04-06T18:04:02;99788.16;;;10.00;40.57
39267;BME280;24967;51.154;13.812;2023-04-06T18:06:28;99784.69;;;9.90;40.75
39267;BME280;24967;51.154;13.812;2023-04-06T18:08:55;99793.31;;;9.82;41.33
39267;BME280;24967;51.154;13.812;2023-04-06T18:11:22;99796.69;;;9.74;41.20
39267;BME280;24967;51.154;13.812;2023-04-06T18:13:51;99798.34;;;9.66;41.45
39267;BME280;24967;51.154;13.812;2023-04-06T18:16:17;99795.41;;;9.59;41.66
39267;BME280;24967;51.154;13.812;2023-04-06T18:18:45;99806.72;;;9.51;41.96
39267;BME280;24967;51.154;13.812;2023-04-06T18:21:12;99807.38;;;9.44;42.19
39267;BME280;24967;51.154;13.812;2023-04-06T18:23:38;99812.56;;;9.35;42.15
39267;BME280;24967;51.154;13.812;2023-04-06T18:26:06;99808.59;;;9.20;42.08
39267;BME280;24967;51.154;13.812;2023-04-06T18:28:32;99807.16;;;9.06;42.49
39267;BME280;24967;51.154;13.812;2023-04-06T18:31:01;99804.19;;;9.00;43.32
39267;BME280;24967;51.154;13.812;2023-04-06T18:33:27;99803.03;;;8.92;43.43
39267;BME280;24967;51.154;13.812;2023-04-06T18:35:54;99811.78;;;8.83;43.70
39267;BME280;24967;51.154;13.812;2023-04-06T18:38:21;99812.22;;;8.79;43.42
39267;BME280;24967;51.154;13.812;2023-04-06T18:40:48;99804.91;;;8.71;43.81
39267;BME280;24967;51.154;13.812;2023-04-06T18:43:15;99805.56;;;8.63;44.52
39267;BME280;24967;51.154;13.812;2023-04-06T18:45:41;99812.34;;;8.56;44.37
39267;BME280;24967;51.154;13.812;2023-04-06T18:48:09;99811.94;;;8.51;44.55
39267;BME280;24967;51.154;13.812;2023-04-06T18:50:38;99810.91;;;8.42;44.31
39267;BME280;24967;51.154;13.812;2023-04-06T18:53:04;99813.31;;;8.34;44.18
39267;BME280;24967;51.154;13.812;2023-04-06T18:55:31;99810.50;;;8.26;44.99
39267;BME280;24967;51.154;13.812;2023-04-06T18:57:57;99817.25;;;8.19;44.37
39267;BME280;24967;51.154;13.812;2023-04-06T19:00:24;99814.13;;;8.14;45.19
39267;BME280;24967;51.154;13.812;2023-04-06T19:02:50;99817.44;;;8.06;44.98
39267;BME280;24967;51.154;13.812;2023-04-06T19:05:18;99818.06;;;7.98;44.83
39267;BME280;24967;51.154;13.812;2023-04-06T19:07:46;99828.47;;;7.90;45.73
39267;BME280;24967;51.154;13.812;2023-04-06T19:10:16;99821.03;;;7.84;45.45
39267;BME280;24967;51.154;13.812;2023-04-06T19:12:45;99821.53;;;7.78;45.07
39267;BME280;24967;51.154;13.812;2023-04-06T19:15:13;99817.69;;;7.71;46.09
39267;BME280;24967;51.154;13.812;2023-04-06T19:17:39;99821.47;;;7.57;46.07
39267;BME280;24967;51.154;13.812;2023-04-06T19:20:07;99822.84;;;7.40;46.41
39267;BME280;24967;51.154;13.812;2023-04-06T19:22:35;99819.50;;;7.27;46.64
39267;BME280;24967;51.154;13.812;2023-04-06T19:25:02;99817.34;;;7.21;47.30
39267;BME280;24967;51.154;13.812;2023-04-06T19:27:28;99815.69;;;7.08;47.09
39267;BME280;24967;51.154;13.812;2023-04-06T19:29:55;99822.28;;;6.92;47.81
39267;BME280;24967;51.154;13.812;2023-04-06T19:32:21;99815.44;;;6.89;48.19
39267;BME280;24967;51.154;13.812;2023-04-06T19:34:48;99829.25;;;6.81;47.79
39267;BME280;24967;51.154;13.812;2023-04-06T19:37:14;99829.59;;;6.77;48.24
39267;BME280;24967;51.154;13.812;2023-04-06T19:39:42;99816.88;;;6.71;47.94
39267;BME280;24967;51.154;13.812;2023-04-06T19:42:09;99823.34;;;6.67;48.50
39267;BME280;24967;51.154;13.812;2023-04-06T19:44:36;99825.28;;;6.64;48.45
39267;BME280;24967;51.154;13.812;2023-04-06T19:47:02;99822.25;;;6.58;48.76
39267;BME280;24967;51.154;13.812;2023-04-06T19:49:29;99817.09;;;6.56;48.89
39267;BME280;24967;51.154;13.812;2023-04-06T19:51:55;99824.41;;;6.53;49.22
39267;BME280;24967;51.154;13.812;2023-04-06T19:54:23;99821.41;;;6.46;48.79
39267;BME280;24967;51.154;13.812;2023-04-06T19:56:51;99823.53;;;6.41;49.33
39267;BME280;24967;51.154;13.812;2023-04-06T19:59:18;99823.19;;;6.34;49.53
39267;BME280;24967;51.154;13.812;2023-04-06T20:01:45;99824.59;;;6.27;49.39
39267;BME280;24967;51.154;13.812;2023-04-06T20:04:12;99824.34;;;6.19;50.08
39267;BME280;24967;51.154;13.812;2023-04-06T20:06:38;99822.06;;;6.14;50.13
39267;BME280;24967;51.154;13.812;2023-04-06T20:09:05;99825.03;;;6.10;49.92
39267;BME280;24967;51.154;13.812;2023-04-06T20:11:32;99822.84;;;6.04;50.52
39267;BME280;24967;51.154;13.812;2023-04-06T20:14:01;99831.97;;;6.00;50.69
39267;BME280;24967;51.154;13.812;2023-04-06T20:16:27;99832.91;;;5.99;50.84
39267;BME280;24967;51.154;13.812;2023-04-06T20:18:53;99830.69;;;5.92;50.28
39267;BME280;24967;51.154;13.812;2023-04-06T20:23:48;99837.38;;;5.85;50.79
39267;BME280;24967;51.154;13.812;2023-04-06T20:26:14;99835.94;;;5.81;50.53
39267;BME280;24967;51.154;13.812;2023-04-06T20:28:41;99836.47;;;5.73;50.61
39267;BME280;24967;51.154;13.812;2023-04-06T20:31:08;99832.72;;;5.65;50.89
39267;BME280;24967;51.154;13.812;2023-04-06T20:33:37;99830.44;;;5.60;51.26
39267;BME280;24967;51.154;13.812;2023-04-06T20:36:04;99829.91;;;5.55;51.27
39267;BME280;24967;51.154;13.812;2023-04-06T20:38:30;99821.41;;;5.51;51.28
39267;BME280;24967;51.154;13.812;2023-04-06T20:40:57;99833.09;;;5.47;51.22
39267;BME280;24967;51.154;13.812;2023-04-06T20:43:24;99829.75;;;5.45;51.23
39267;BME280;24967;51.154;13.812;2023-04-06T20:45:52;99826.50;;;5.42;51.34
39267;BME280;24967;51.154;13.812;2023-04-06T20:48:20;99831.25;;;5.37;51.72
39267;BME280;24967;51.154;13.812;2023-04-06T20:50:47;99825.22;;;5.35;51.62
39267;BME280;24967;51.154;13.812;2023-04-06T20:53:14;99822.94;;;5.30;51.58
39267;BME280;24967;51.154;13.812;2023-04-06T20:55:41;99825.91;;;5.25;51.85
39267;BME280;24967;51.154;13.812;2023-04-06T20:58:08;99826.13;;;5.22;52.15
39267;BME280;24967;51.154;13.812;2023-04-06T21:00:35;99828.97;;;5.19;52.21
39267;BME280;24967;51.154;13.812;2023-04-06T21:03:02;99830.25;;;5.14;52.24
39267;BME280;24967;51.154;13.812;2023-04-06T21:05:30;99831.00;;;5.03;52.37
39267;BME280;24967;51.154;13.812;2023-04-06T21:07:56;99833.97;;;4.98;52.47
39267;BME280;24967;51.154;13.812;2023-04-06T21:10:23;99823.75;;;4.94;52.49
39267;BME280;24967;51.154;13.812;2023-04-06T21:12:49;99816.28;;;4.88;52.73
39267;BME280;24967;51.154;13.812;2023-04-06T21:15:16;99819.84;;;4.87;53.05
39267;BME280;24967;51.154;13.812;2023-04-06T21:17:43;99824.28;;;4.86;52.94
39267;BME280;24967;51.154;13.812;2023-04-06T21:20:09;99829.75;;;4.83;53.11
39267;BME280;24967;51.154;13.812;2023-04-06T21:25:16;99832.50;;;4.69;53.65
39267;BME280;24967;51.154;13.812;2023-04-06T21:27:43;99818.63;;;4.67;53.71
39267;BME280;24967;51.154;13.812;2023-04-06T21:32:54;99826.09;;;4.60;53.67
39267;BME280;24967;51.154;13.812;2023-04-06T21:35:20;99826.94;;;4.61;54.12
39267;BME280;24967;51.154;13.812;2023-04-06T21:37:47;99824.63;;;4.56;54.13
39267;BME280;24967;51.154;13.812;2023-04-06T21:40:13;99824.81;;;4.53;53.83
39267;BME280;24967;51.154;13.812;2023-04-06T21:42:41;99829.38;;;4.51;54.21
39267;BME280;24967;51.154;13.812;2023-04-06T21:45:08;99823.56;;;4.46;54.25
39267;BME280;24967;51.154;13.812;2023-04-06T21:47:35;99816.09;;;4.40;54.39
39267;BME280;24967;51.154;13.812;2023-04-06T21:50:02;99819.03;;;4.35;54.28
39267;BME280;24967;51.154;13.812;2023-04-06T21:52:28;99808.69;;;4.32;54.94
39267;BME280;24967;51.154;13.812;2023-04-06T21:54:55;99814.28;;;4.27;55.44
39267;BME280;24967;51.154;13.812;2023-04-06T21:57:21;99811.03;;;4.24;55.23
39267;BME280;24967;51.154;13.812;2023-04-06T21:59:49;99803.34;;;4.21;55.39
39267;BME280;24967;51.154;13.812;2023-04-06T22:02:16;99803.44;;;4.19;55.61
39267;BME280;24967;51.154;13.812;2023-04-06T22:04:42;99806.19;;;4.18;55.76
39267;BME280;24967;51.154;13.812;2023-04-06T22:07:09;99806.19;;;4.18;55.56
39267;BME280;24967;51.154;13.812;2023-04-06T22:09:35;99801.13;;;4.15;55.75
39267;BME280;24967;51.154;13.812;2023-04-06T22:12:02;99811.75;;;4.13;55.65
39267;BME280;24967;51.154;13.812;2023-04-06T22:14:29;99799.75;;;4.09;55.23
39267;BME280;24967;51.154;13.812;2023-04-06T22:16:57;99797.41;;;4.04;55.66
39267;BME280;24967;51.154;13.812;2023-04-06T22:19:23;99800.56;;;3.97;55.86
39267;BME280;24967;51.154;13.812;2023-04-06T22:21:50;99807.59;;;3.96;55.90
39267;BME280;24967;51.154;13.812;2023-04-06T22:24:16;99801.91;;;3.89;56.23
39267;BME280;24967;51.154;13.812;2023-04-06T22:26:43;99797.06;;;3.83;56.66
39267;BME280;24967;51.154;13.812;2023-04-06T22:29:10;99800.00;;;3.79;56.65
39267;BME280;24967;51.154;13.812;2023-04-06T22:31:36;99803.75;;;3.75;56.78
39267;BME280;24967;51.154;13.812;2023-04-06T22:34:04;99800.28;;;3.74;56.12
39267;BME280;24967;51.154;13.812;2023-04-06T22:36:30;99794.09;;;3.75;56.44
39267;BME280;24967;51.154;13.812;2023-04-06T22:38:57;99797.66;;;3.74;56.48
39267;BME280;24967;51.154;13.812;2023-04-06T22:41:23;99792.41;;;3.74;56.52
39267;BME280;24967;51.154;13.812;2023-04-06T22:43:50;99790.81;;;3.72;56.37
39267;BME280;24967;51.154;13.812;2023-04-06T22:46:17;99788.38;;;3.68;57.22
39267;BME280;24967;51.154;13.812;2023-04-06T22:48:43;99796.47;;;3.65;56.44
39267;BME280;24967;51.154;13.812;2023-04-06T22:51:11;99788.97;;;3.59;56.34
39267;BME280;24967;51.154;13.812;2023-04-06T22:53:37;99788.16;;;3.59;56.77
39267;BME280;24967;51.154;13.812;2023-04-06T22:56:04;99779.50;;;3.57;56.85
39267;BME280;24967;51.154;13.812;2023-04-06T22:58:31;99791.94;;;3.55;57.19
39267;BME280;24967;51.154;13.812;2023-04-06T23:01:00;99786.88;;;3.52;57.38
39267;BME280;24967;51.154;13.812;2023-04-06T23:03:26;99785.28;;;3.49;57.17
39267;BME280;24967;51.154;13.812;2023-04-06T23:05:53;99781.06;;;3.47;57.43
39267;BME280;24967;51.154;13.812;2023-04-06T23:08:21;99778.44;;;3.47;57.30
39267;BME280;24967;51.154;13.812;2023-04-06T23:10:48;99784.00;;;3.42;57.13
39267;BME280;24967;51.154;13.812;2023-04-06T23:13:15;99783.53;;;3.35;56.93
39267;BME280;24967;51.154;13.812;2023-04-06T23:15:41;99787.09;;;3.34;57.39
39267;BME280;24967;51.154;13.812;2023-04-06T23:18:08;99779.50;;;3.30;56.94
39267;BME280;24967;51.154;13.812;2023-04-06T23:20:34;99782.34;;;3.27;57.65
39267;BME280;24967;51.154;13.812;2023-04-06T23:23:01;99778.03;;;3.26;56.77
39267;BME280;24967;51.154;13.812;2023-04-06T23:25:29;99778.22;;;3.22;57.13
39267;BME280;24967;51.154;13.812;2023-04-06T23:27:55;99776.63;;;3.20;57.15
39267;BME280;24967;51.154;13.812;2023-04-06T23:30:21;99783.78;;;3.18;57.84
39267;BME280;24967;51.154;13.812;2023-04-06T23:32:48;99776.94;;;3.15;57.80
39267;BME280;24967;51.154;13.812;2023-04-06T23:35:15;99769.06;;;3.15;57.53
39267;BME280;24967;51.154;13.812;2023-04-06T23:37:41;99775.34;;;3.13;57.62
39267;BME280;24967;51.154;13.812;2023-04-06T23:40:08;99776.56;;;3.07;57.12
39267;BME280;24967;51.154;13.812;2023-04-06T23:42:36;99772.34;;;3.05;57.39
39267;BME280;24967;51.154;13.812;2023-04-06T23:45:03;99767.09;;;3.05;58.22
39267;BME280;24967;51.154;13.812;2023-04-06T23:47:30;99776.69;;;3.06;57.44
39267;BME280;24967;51.154;13.812;2023-04-06T23:49:57;99769.00;;;3.03;57.91
39267;BME280;24967;51.154;13.812;2023-04-06T23:52:24;99769.91;;;3.02;57.91
39267;BME280;24967;51.154;13.812;2023-04-06T23:54:51;99772.56;;;3.02;57.76
39267;BME280;24967;51.154;13.812;2023-04-06T23:57:17;99768.25;;;3.01;58.07
39267;BME280;24967;51.154;13.812;2023-04-06T23:59:45;99765.63;;;3.01;57.50
